createdAt,value
2018-06-05T00:00:50.461Z,22.31
2018-06-05T00:01:50.372Z,22.33
2018-06-05T00:02:50.389Z,22.31
2018-06-05T00:03:50.392Z,22.25
2018-06-05T00:04:50.370Z,22.21
2018-06-05T00:05:50.397Z,22.2
2018-06-05T00:06:50.368Z,22.21
2018-06-05T00:07:50.362Z,22.24
2018-06-05T00:08:50.371Z,22.15
2018-06-05T00:09:50.403Z,22.05
2018-06-05T00:10:50.372Z,22.11
2018-06-05T00:11:50.347Z,21.82
2018-06-05T00:12:50.382Z,21.73
2018-06-05T00:13:50.436Z,21.84
2018-06-05T00:14:50.396Z,21.87
2018-06-05T00:15:50.384Z,21.91
2018-06-05T00:16:50.365Z,21.86
2018-06-05T00:17:50.410Z,21.87
2018-06-05T00:18:50.432Z,21.92
2018-06-05T00:19:50.393Z,21.94
2018-06-05T00:20:50.393Z,21.94
2018-06-05T00:21:50.394Z,21.93
2018-06-05T00:22:50.384Z,21.95
2018-06-05T00:23:50.503Z,21.95
2018-06-05T00:24:50.365Z,21.99
2018-06-05T00:25:50.386Z,21.98
2018-06-05T00:26:50.724Z,21.89
2018-06-05T00:27:50.375Z,21.87
2018-06-05T00:28:50.402Z,21.87
2018-06-05T00:29:50.661Z,21.82
2018-06-05T00:30:50.376Z,21.7
2018-06-05T00:31:50.391Z,21.64
2018-06-05T00:32:50.365Z,21.68
2018-06-05T00:33:50.436Z,21.72
2018-06-05T00:34:50.378Z,21.72
2018-06-05T00:35:50.363Z,21.73
2018-06-05T00:36:50.385Z,21.72
2018-06-05T00:37:50.575Z,21.74
2018-06-05T00:38:50.502Z,21.7
2018-06-05T00:39:50.410Z,21.67
2018-06-05T00:40:50.406Z,21.69
2018-06-05T00:41:50.388Z,21.68
2018-06-05T00:42:50.375Z,21.69
2018-06-05T00:43:50.417Z,21.7
2018-06-05T00:44:50.377Z,21.65
2018-06-05T00:45:50.452Z,21.66
2018-06-05T00:46:50.629Z,21.69
2018-06-05T00:47:50.371Z,21.63
2018-06-05T00:48:50.381Z,21.66
2018-06-05T00:49:50.384Z,21.64
2018-06-05T00:50:50.354Z,21.65
2018-06-05T00:51:50.359Z,21.68
2018-06-05T00:52:50.570Z,21.69
2018-06-05T00:53:50.545Z,21.7
2018-06-05T00:54:50.351Z,21.66
2018-06-05T00:55:50.417Z,21.65
2018-06-05T00:56:50.357Z,21.66
2018-06-05T00:57:51.413Z,21.66
2018-06-05T00:58:50.345Z,21.65
2018-06-05T00:59:50.348Z,21.65
2018-06-05T01:00:50.385Z,21.63
2018-06-05T01:01:50.547Z,21.63
2018-06-05T01:02:50.393Z,21.61
2018-06-05T01:03:50.708Z,21.62
2018-06-05T01:04:50.403Z,21.61
2018-06-05T01:05:50.423Z,21.62
2018-06-05T01:06:50.374Z,21.59
2018-06-05T01:07:50.799Z,21.47
2018-06-05T01:08:51.034Z,21.43
2018-06-05T01:09:50.346Z,21.44
2018-06-05T01:10:50.435Z,21.45
2018-06-05T01:11:50.323Z,21.43
2018-06-05T01:12:50.376Z,21.43
2018-06-05T01:13:50.607Z,21.45
2018-06-05T01:14:50.359Z,21.44
2018-06-05T01:15:50.337Z,21.44
2018-06-05T01:16:50.394Z,21.44
2018-06-05T01:17:51.678Z,21.44
2018-06-05T01:18:50.348Z,21.44
2018-06-05T01:19:50.333Z,21.44
2018-06-05T01:20:50.377Z,21.43
2018-06-05T01:21:50.386Z,21.41
2018-06-05T01:22:50.452Z,21.41
2018-06-05T01:23:50.512Z,21.23
2018-06-05T01:24:50.358Z,21.25
2018-06-05T01:25:50.375Z,21.27
2018-06-05T01:26:50.363Z,21.31
2018-06-05T01:27:50.328Z,21.29
2018-06-05T01:28:50.340Z,21.3
2018-06-05T01:29:50.357Z,21.27
2018-06-05T01:30:50.393Z,21.26
2018-06-05T01:31:50.409Z,21.27
2018-06-05T01:32:50.387Z,21.28
2018-06-05T01:33:50.339Z,21.28
2018-06-05T01:34:50.335Z,21.27
2018-06-05T01:35:50.352Z,21.24
2018-06-05T01:36:50.343Z,21.18
2018-06-05T01:37:50.355Z,21.23
2018-06-05T01:38:50.397Z,21.22
2018-06-05T01:39:50.347Z,21.23
2018-06-05T01:40:50.355Z,21.21
2018-06-05T01:41:50.476Z,21.23
2018-06-05T01:42:50.360Z,21.25
2018-06-05T01:43:50.461Z,21.26
2018-06-05T01:44:50.349Z,21.27
2018-06-05T01:45:50.503Z,21.29
2018-06-05T01:46:50.360Z,21.3
2018-06-05T01:47:50.349Z,21.31
2018-06-05T01:48:50.374Z,21.32
2018-06-05T01:49:50.462Z,21.32
2018-06-05T01:50:50.384Z,21.31
2018-06-05T01:51:50.392Z,21.3
2018-06-05T01:52:50.403Z,21.32
2018-06-05T01:53:50.358Z,21.33
2018-06-05T01:54:50.351Z,21.33
2018-06-05T01:55:50.349Z,21.32
2018-06-05T01:56:50.374Z,21.32
2018-06-05T01:57:50.365Z,21.32
2018-06-05T01:58:50.413Z,21.31
2018-06-05T01:59:50.357Z,21.31
2018-06-05T02:00:50.401Z,21.32
2018-06-05T02:01:50.321Z,21.32
2018-06-05T02:02:50.313Z,21.31
2018-06-05T02:03:50.448Z,21.3
2018-06-05T02:04:50.373Z,21.31
2018-06-05T02:05:50.369Z,21.29
2018-06-05T02:06:50.406Z,21.26
2018-06-05T02:07:50.361Z,21.2
2018-06-05T02:08:50.365Z,21.2
2018-06-05T02:09:50.400Z,21.2
2018-06-05T02:10:50.431Z,21.2
2018-06-05T02:11:50.338Z,21.16
2018-06-05T02:12:50.350Z,21.16
2018-06-05T02:13:50.324Z,21.15
2018-06-05T02:14:50.327Z,21.12
2018-06-05T02:15:50.348Z,21.15
2018-06-05T02:16:50.399Z,21.15
2018-06-05T02:17:50.337Z,21.18
2018-06-05T02:18:50.344Z,21.15
2018-06-05T02:19:50.351Z,21.19
2018-06-05T02:20:50.328Z,21.14
2018-06-05T02:21:50.329Z,21.15
2018-06-05T02:22:50.382Z,21.15
2018-06-05T02:23:50.332Z,21.18
2018-06-05T02:24:50.338Z,21.15
2018-06-05T02:25:50.338Z,21.13
2018-06-05T02:26:50.353Z,21.12
2018-06-05T02:27:50.334Z,21.09
2018-06-05T02:28:50.338Z,21.07
2018-06-05T02:29:50.320Z,21.08
2018-06-05T02:30:50.364Z,21.05
2018-06-05T02:31:50.320Z,21.04
2018-06-05T02:32:50.360Z,21.04
2018-06-05T02:33:50.389Z,21.02
2018-06-05T02:34:50.371Z,21.02
2018-06-05T02:35:50.361Z,20.98
2018-06-05T02:36:50.455Z,20.99
2018-06-05T02:37:50.363Z,20.93
2018-06-05T02:38:50.510Z,20.9
2018-06-05T02:39:50.354Z,20.93
2018-06-05T02:40:50.352Z,20.9
2018-06-05T02:41:50.448Z,20.87
2018-06-05T02:42:50.393Z,20.87
2018-06-05T02:43:50.340Z,20.88
2018-06-05T02:44:50.335Z,20.88
2018-06-05T02:45:50.350Z,20.88
2018-06-05T02:46:50.348Z,20.84
2018-06-05T02:47:50.333Z,20.77
2018-06-05T02:48:50.483Z,20.77
2018-06-05T02:49:50.357Z,20.73
2018-06-05T02:50:50.385Z,20.74
2018-06-05T02:51:50.344Z,20.73
2018-06-05T02:52:50.776Z,20.74
2018-06-05T02:53:50.342Z,20.73
2018-06-05T02:54:50.368Z,20.71
2018-06-05T02:55:50.345Z,20.7
2018-06-05T02:56:50.343Z,20.68
2018-06-05T02:57:50.358Z,20.68
2018-06-05T02:58:50.387Z,20.7
2018-06-05T02:59:50.348Z,20.72
2018-06-05T03:00:50.395Z,20.7
2018-06-05T03:01:50.349Z,20.69
2018-06-05T03:02:50.362Z,20.7
2018-06-05T03:03:50.395Z,20.71
2018-06-05T03:04:50.335Z,20.73
2018-06-05T03:05:50.695Z,20.71
2018-06-05T03:06:50.336Z,20.71
2018-06-05T03:07:50.511Z,20.69
2018-06-05T03:08:50.338Z,20.7
2018-06-05T03:09:50.353Z,20.7
2018-06-05T03:10:50.439Z,20.68
2018-06-05T03:11:50.359Z,20.66
2018-06-05T03:12:50.362Z,20.65
2018-06-05T03:13:50.364Z,20.66
2018-06-05T03:14:50.346Z,20.66
2018-06-05T03:15:50.362Z,20.66
2018-06-05T03:16:50.465Z,20.65
2018-06-05T03:17:50.493Z,20.65
2018-06-05T03:18:50.336Z,20.63
2018-06-05T03:19:50.322Z,20.66
2018-06-05T03:20:50.335Z,20.64
2018-06-05T03:21:50.630Z,20.64
2018-06-05T03:22:50.332Z,20.64
2018-06-05T03:23:50.682Z,20.64
2018-06-05T03:24:50.354Z,20.64
2018-06-05T03:25:50.310Z,20.64
2018-06-05T03:26:50.333Z,20.64
2018-06-05T03:27:50.328Z,20.63
2018-06-05T03:28:50.337Z,20.62
2018-06-05T03:29:50.305Z,20.6
2018-06-05T03:30:50.361Z,20.58
2018-06-05T03:31:50.367Z,20.55
2018-06-05T03:32:50.396Z,20.55
2018-06-05T03:33:50.314Z,20.55
2018-06-05T03:34:50.332Z,20.55
2018-06-05T03:35:50.346Z,20.54
2018-06-05T03:36:50.335Z,20.52
2018-06-05T03:37:50.328Z,20.48
2018-06-05T03:38:50.323Z,20.46
2018-06-05T03:39:50.322Z,20.42
2018-06-05T03:40:50.740Z,20.34
2018-06-05T03:41:50.425Z,20.33
2018-06-05T03:42:50.316Z,20.35
2018-06-05T03:43:50.394Z,20.34
2018-06-05T03:44:50.324Z,20.33
2018-06-05T03:45:50.327Z,20.31
2018-06-05T03:46:50.374Z,20.32
2018-06-05T03:47:50.343Z,20.31
2018-06-05T03:48:50.321Z,20.31
2018-06-05T03:49:50.314Z,20.3
2018-06-05T03:50:50.292Z,20.29
2018-06-05T03:51:50.334Z,20.3
2018-06-05T03:52:50.340Z,20.3
2018-06-05T03:53:50.334Z,20.29
2018-06-05T03:54:50.376Z,20.29
2018-06-05T03:55:50.310Z,20.28
2018-06-05T03:56:50.319Z,20.29
2018-06-05T03:57:50.375Z,20.25
2018-06-05T03:58:50.338Z,20.2
2018-06-05T03:59:50.311Z,20.16
2018-06-05T04:00:50.345Z,20.14
2018-06-05T04:01:50.376Z,20.12
2018-06-05T04:02:50.341Z,20.09
2018-06-05T04:03:50.349Z,20.09
2018-06-05T04:04:50.308Z,20.07
2018-06-05T04:05:50.320Z,20.07
2018-06-05T04:06:50.361Z,20.07
2018-06-05T04:07:50.352Z,20.09
2018-06-05T04:08:50.375Z,20.06
2018-06-05T04:09:50.303Z,20.04
2018-06-05T04:10:50.328Z,19.95
2018-06-05T04:11:50.367Z,19.95
2018-06-05T04:12:50.342Z,19.96
2018-06-05T04:13:50.478Z,19.97
2018-06-05T04:14:50.305Z,19.96
2018-06-05T04:15:50.325Z,19.98
2018-06-05T04:16:50.353Z,20.01
2018-06-05T04:17:50.318Z,20
2018-06-05T04:18:50.529Z,20.02
2018-06-05T04:19:50.444Z,20.01
2018-06-05T04:20:50.392Z,19.99
2018-06-05T04:21:50.303Z,20.02
2018-06-05T04:22:50.319Z,20.01
2018-06-05T04:23:50.438Z,20.03
2018-06-05T04:24:50.322Z,20.05
2018-06-05T04:25:51.132Z,20.07
2018-06-05T04:26:50.501Z,20.06
2018-06-05T04:27:50.347Z,20.07
2018-06-05T04:28:50.315Z,20.08
2018-06-05T04:29:50.341Z,20.09
2018-06-05T04:30:50.306Z,20.08
2018-06-05T04:31:50.312Z,20.09
2018-06-05T04:32:50.291Z,20.09
2018-06-05T04:33:50.399Z,20.07
2018-06-05T04:34:50.432Z,20.06
2018-06-05T04:35:50.294Z,20.09
2018-06-05T04:36:50.490Z,20.07
2018-06-05T04:37:50.360Z,20.11
2018-06-05T04:38:50.325Z,20.11
2018-06-05T04:39:50.288Z,20.12
2018-06-05T04:40:50.330Z,20.14
2018-06-05T04:41:50.297Z,20.15
2018-06-05T04:42:50.687Z,20.16
2018-06-05T04:43:50.313Z,20.14
2018-06-05T04:44:50.355Z,20.14
2018-06-05T04:45:50.285Z,20.17
2018-06-05T04:46:50.282Z,20.15
2018-06-05T04:47:51.007Z,20.19
2018-06-05T04:48:50.292Z,20.14
2018-06-05T04:49:50.310Z,20.13
2018-06-05T04:50:50.284Z,20.13
2018-06-05T04:51:50.261Z,20.07
2018-06-05T04:52:50.311Z,20
2018-06-05T04:53:50.350Z,19.97
2018-06-05T04:54:50.345Z,19.97
2018-06-05T04:55:50.322Z,19.99
2018-06-05T04:56:50.295Z,20.01
2018-06-05T04:57:50.303Z,20
2018-06-05T04:58:50.293Z,20.01
2018-06-05T04:59:50.454Z,20.02
2018-06-05T05:00:50.271Z,20.02
2018-06-05T05:01:50.386Z,20.04
2018-06-05T05:02:50.272Z,20.06
2018-06-05T05:03:50.274Z,20.08
2018-06-05T05:04:50.286Z,20.05
2018-06-05T05:05:50.331Z,20.02
2018-06-05T05:06:50.596Z,19.88
2018-06-05T05:07:50.275Z,19.92
2018-06-05T05:08:50.394Z,19.94
2018-06-05T05:09:50.339Z,19.98
2018-06-05T05:10:50.336Z,19.99
2018-06-05T05:11:50.368Z,20.03
2018-06-05T05:12:50.358Z,20.06
2018-06-05T05:13:50.324Z,20.08
2018-06-05T05:14:50.268Z,20.09
2018-06-05T05:15:50.280Z,20.14
2018-06-05T05:16:50.363Z,20.11
2018-06-05T05:17:50.362Z,20.05
2018-06-05T05:18:50.307Z,19.94
2018-06-05T05:19:50.428Z,20.02
2018-06-05T05:20:50.384Z,20.03
2018-06-05T05:21:50.237Z,20.03
2018-06-05T05:22:50.405Z,20.03
2018-06-05T05:23:50.337Z,20.05
2018-06-05T05:24:50.318Z,20.11
2018-06-05T05:25:50.269Z,20.13
2018-06-05T05:26:50.262Z,20.11
2018-06-05T05:27:50.265Z,20.1
2018-06-05T05:28:50.284Z,20.13
2018-06-05T05:29:50.267Z,20.16
2018-06-05T05:30:50.667Z,20.19
2018-06-05T05:31:50.289Z,20.2
2018-06-05T05:32:50.273Z,20.25
2018-06-05T05:33:50.455Z,20.29
2018-06-05T05:34:50.465Z,20.29
2018-06-05T05:35:50.608Z,20.3
2018-06-05T05:36:50.322Z,20.32
2018-06-05T05:37:50.278Z,20.32
2018-06-05T05:38:50.324Z,20.35
2018-06-05T05:39:50.260Z,20.36
2018-06-05T05:40:50.267Z,20.36
2018-06-05T05:41:50.294Z,20.36
2018-06-05T05:42:50.298Z,20.37
2018-06-05T05:43:50.260Z,20.36
2018-06-05T05:44:50.318Z,20.35
2018-06-05T05:45:50.286Z,20.29
2018-06-05T05:46:50.267Z,20.25
2018-06-05T05:47:50.321Z,20.24
2018-06-05T05:48:50.294Z,20.23
2018-06-05T05:49:50.250Z,20.29
2018-06-05T05:50:50.263Z,20.32
2018-06-05T05:51:50.245Z,20.38
2018-06-05T05:52:50.308Z,20.38
2018-06-05T05:53:50.274Z,20.37
2018-06-05T05:54:50.812Z,20.37
2018-06-05T05:55:50.326Z,20.38
2018-06-05T05:56:50.282Z,20.45
2018-06-05T05:57:50.301Z,20.43
2018-06-05T05:58:50.286Z,20.43
2018-06-05T05:59:50.284Z,20.48
2018-06-05T06:00:50.285Z,20.5
2018-06-05T06:01:50.387Z,20.54
2018-06-05T06:02:50.366Z,20.53
2018-06-05T06:03:50.831Z,20.52
2018-06-05T06:04:50.315Z,20.54
2018-06-05T06:05:50.263Z,20.44
2018-06-05T06:06:50.321Z,20.44
2018-06-05T06:07:50.268Z,20.52
2018-06-05T06:08:50.245Z,20.53
2018-06-05T06:09:50.418Z,20.58
2018-06-05T06:10:50.667Z,20.59
2018-06-05T06:11:50.295Z,20.59
2018-06-05T06:12:50.301Z,20.62
2018-06-05T06:13:50.298Z,20.68
2018-06-05T06:14:50.272Z,20.71
2018-06-05T06:15:50.273Z,20.72
2018-06-05T06:16:50.304Z,20.74
2018-06-05T06:17:50.346Z,20.75
2018-06-05T06:18:50.239Z,20.78
2018-06-05T06:19:50.315Z,20.8
2018-06-05T06:20:50.254Z,20.86
2018-06-05T06:21:50.240Z,20.89
2018-06-05T06:22:50.252Z,20.93
2018-06-05T06:23:50.232Z,20.99
2018-06-05T06:24:50.255Z,20.98
2018-06-05T06:25:50.352Z,21.04
2018-06-05T06:26:50.257Z,21.06
2018-06-05T06:27:50.296Z,21.1
2018-06-05T06:28:50.281Z,21.14
2018-06-05T06:29:50.604Z,21.13
2018-06-05T06:30:50.260Z,21.16
2018-06-05T06:31:50.366Z,21.21
2018-06-05T06:32:50.241Z,21.19
2018-06-05T06:33:50.276Z,21.22
2018-06-05T06:34:50.246Z,21.21
2018-06-05T06:35:50.306Z,21.21
2018-06-05T06:36:50.234Z,21.23
2018-06-05T06:37:50.416Z,21.28
2018-06-05T06:38:50.280Z,21.31
2018-06-05T06:39:50.270Z,21.28
2018-06-05T06:40:50.250Z,21.33
2018-06-05T06:41:50.406Z,21.33
2018-06-05T06:42:50.253Z,21.34
2018-06-05T06:43:50.221Z,21.34
2018-06-05T06:44:50.432Z,21.4
2018-06-05T06:45:50.270Z,21.43
2018-06-05T06:46:50.599Z,21.46
2018-06-05T06:47:50.240Z,21.5
2018-06-05T06:48:51.037Z,21.54
2018-06-05T06:49:50.261Z,21.59
2018-06-05T06:50:50.277Z,21.61
2018-06-05T06:51:50.280Z,21.64
2018-06-05T06:52:50.291Z,21.68
2018-06-05T06:53:50.250Z,21.72
2018-06-05T06:54:50.530Z,21.75
2018-06-05T06:55:50.268Z,21.78
2018-06-05T06:56:50.267Z,21.81
2018-06-05T06:57:50.293Z,21.84
2018-06-05T06:58:50.212Z,21.87
2018-06-05T06:59:50.232Z,21.89
2018-06-05T07:00:50.260Z,21.94
2018-06-05T07:01:50.236Z,21.95
2018-06-05T07:02:50.234Z,21.98
2018-06-05T07:03:50.288Z,22.03
2018-06-05T07:04:50.231Z,22.05
2018-06-05T07:05:50.336Z,22.06
2018-06-05T07:06:50.243Z,22.09
2018-06-05T07:07:50.222Z,22.08
2018-06-05T07:08:50.284Z,22.13
2018-06-05T07:09:50.255Z,22.17
2018-06-05T07:10:50.231Z,22.16
2018-06-05T07:11:50.311Z,22.18
2018-06-05T07:12:50.272Z,22.18
2018-06-05T07:13:50.280Z,22.19
2018-06-05T07:14:50.230Z,22.22
2018-06-05T07:15:50.286Z,22.25
2018-06-05T07:16:50.232Z,22.31
2018-06-05T07:17:50.372Z,22.39
2018-06-05T07:18:50.293Z,22.41
2018-06-05T07:19:50.387Z,22.44
2018-06-05T07:20:50.253Z,22.47
2018-06-05T07:21:50.224Z,22.47
2018-06-05T07:22:50.266Z,22.46
2018-06-05T07:23:50.236Z,22.48
2018-06-05T07:24:50.256Z,22.52
2018-06-05T07:25:50.221Z,22.47
2018-06-05T07:26:50.240Z,22.46
2018-06-05T07:27:50.329Z,22.47
2018-06-05T07:28:50.241Z,22.53
2018-06-05T07:29:50.408Z,22.57
2018-06-05T07:30:50.230Z,22.56
2018-06-05T07:31:50.451Z,22.59
2018-06-05T07:32:50.239Z,22.64
2018-06-05T07:33:50.279Z,22.64
2018-06-05T07:34:50.226Z,22.67
2018-06-05T07:35:50.464Z,22.72
2018-06-05T07:36:50.235Z,22.74
2018-06-05T07:37:50.393Z,22.78
2018-06-05T07:38:50.372Z,22.78
2018-06-05T07:39:50.303Z,22.8
2018-06-05T07:40:50.251Z,22.85
2018-06-05T07:41:50.232Z,22.86
2018-06-05T07:42:50.244Z,22.92
2018-06-05T07:43:50.345Z,22.93
2018-06-05T07:44:50.237Z,22.95
2018-06-05T07:45:50.222Z,22.98
2018-06-05T07:46:50.307Z,22.98
2018-06-05T07:47:50.271Z,23
2018-06-05T07:48:50.220Z,23.03
2018-06-05T07:49:50.228Z,23.06
2018-06-05T07:50:50.217Z,23.09
2018-06-05T07:51:50.251Z,23.12
2018-06-05T07:52:50.236Z,23.09
2018-06-05T07:53:50.223Z,23.03
2018-06-05T07:54:50.270Z,23.06
2018-06-05T07:55:50.206Z,23.08
2018-06-05T07:56:50.242Z,23.11
2018-06-05T07:57:50.205Z,23.18
2018-06-05T07:58:50.212Z,23.23
2018-06-05T07:59:50.206Z,23.28
2018-06-05T08:00:50.237Z,23.34
2018-06-05T08:01:50.201Z,23.4
2018-06-05T08:02:50.207Z,23.43
2018-06-05T08:03:50.232Z,23.43
2018-06-05T08:04:50.255Z,23.48
2018-06-05T08:05:50.244Z,23.55
2018-06-05T08:06:50.235Z,23.47
2018-06-05T08:07:50.214Z,23.51
2018-06-05T08:08:50.208Z,23.54
2018-06-05T08:09:50.261Z,23.5
2018-06-05T08:10:50.204Z,23.5
2018-06-05T08:11:50.613Z,23.52
2018-06-05T08:12:50.225Z,23.55
2018-06-05T08:13:50.189Z,23.61
2018-06-05T08:14:50.240Z,23.66
2018-06-05T08:15:50.389Z,23.72
2018-06-05T08:16:50.239Z,23.77
2018-06-05T08:17:50.199Z,23.91
2018-06-05T08:18:50.235Z,23.99
2018-06-05T08:19:50.278Z,24.03
2018-06-05T08:20:50.230Z,23.94
2018-06-05T08:21:50.238Z,23.78
2018-06-05T08:22:50.221Z,23.76
2018-06-05T08:23:50.250Z,23.86
2018-06-05T08:24:50.237Z,23.95
2018-06-05T08:25:50.253Z,23.91
2018-06-05T08:26:50.280Z,23.92
2018-06-05T08:27:50.205Z,23.96
2018-06-05T08:28:50.229Z,23.98
2018-06-05T08:29:50.472Z,23.97
2018-06-05T08:30:50.226Z,24.04
2018-06-05T08:31:50.301Z,24.11
2018-06-05T08:32:50.251Z,24.14
2018-06-05T08:33:53.489Z,24.2
2018-06-05T08:34:52.782Z,24.15
2018-06-05T08:35:50.246Z,24.21
2018-06-05T08:36:50.253Z,24.23
2018-06-05T08:37:50.736Z,24.32
2018-06-05T08:38:50.210Z,24.36
2018-06-05T08:39:50.247Z,24.29
2018-06-05T08:40:50.192Z,24.24
2018-06-05T08:41:50.286Z,24.25
2018-06-05T08:42:50.274Z,24.24
2018-06-05T08:43:50.346Z,24.23
2018-06-05T08:44:50.357Z,24.29
2018-06-05T08:45:50.424Z,24.36
2018-06-05T08:46:50.330Z,24.41
2018-06-05T08:47:50.217Z,24.47
2018-06-05T08:48:50.261Z,24.58
2018-06-05T08:49:50.194Z,24.58
2018-06-05T08:50:50.203Z,24.61
2018-06-05T08:51:50.231Z,24.6
2018-06-05T08:52:50.215Z,24.6
2018-06-05T08:53:50.248Z,24.61
2018-06-05T08:54:50.220Z,24.68
2018-06-05T08:55:50.489Z,24.76
2018-06-05T08:56:50.199Z,24.8
2018-06-05T08:57:50.268Z,24.9
2018-06-05T08:58:50.222Z,24.85
2018-06-05T08:59:50.588Z,24.91
2018-06-05T09:00:50.229Z,24.95
2018-06-05T09:01:50.235Z,24.95
2018-06-05T09:03:00.643Z,24.95
2018-06-05T09:03:50.494Z,24.93
2018-06-05T09:04:50.230Z,24.94
2018-06-05T09:05:50.266Z,24.99
2018-06-05T09:06:50.284Z,25.04
2018-06-05T09:07:50.243Z,25.09
2018-06-05T09:08:50.224Z,25.16
2018-06-05T09:09:50.193Z,25.21
2018-06-05T09:10:50.607Z,25.2
2018-06-05T09:11:50.191Z,25.2
2018-06-05T09:12:50.829Z,25.2
2018-06-05T09:13:50.213Z,25.14
2018-06-05T09:14:50.223Z,25.07
2018-06-05T09:15:50.187Z,25.14
2018-06-05T09:16:50.205Z,25.17
2018-06-05T09:17:50.199Z,25.25
2018-06-05T09:18:50.240Z,25.3
2018-06-05T09:19:50.185Z,25.33
2018-06-05T09:20:50.202Z,25.41
2018-06-05T09:21:50.275Z,25.46
2018-06-05T09:22:50.216Z,25.56
2018-06-05T09:23:50.181Z,25.53
2018-06-05T09:24:50.203Z,25.55
2018-06-05T09:25:50.193Z,25.47
2018-06-05T09:26:50.725Z,25.51
2018-06-05T09:27:50.233Z,25.47
2018-06-05T09:28:50.248Z,25.53
2018-06-05T09:29:50.312Z,25.59
2018-06-05T09:30:50.185Z,25.68
2018-06-05T09:31:50.300Z,25.76
2018-06-05T09:32:50.216Z,25.77
2018-06-05T09:33:50.194Z,25.8
2018-06-05T09:34:50.203Z,25.93
2018-06-05T09:35:50.212Z,25.9
2018-06-05T09:36:50.212Z,25.71
2018-06-05T09:37:50.482Z,25.74
2018-06-05T09:38:50.214Z,25.77
2018-06-05T09:39:50.194Z,25.81
2018-06-05T09:40:50.165Z,25.86
2018-06-05T09:41:50.184Z,25.86
2018-06-05T09:42:50.369Z,25.9
2018-06-05T09:43:50.199Z,25.95
2018-06-05T09:44:50.219Z,25.91
2018-06-05T09:45:50.271Z,25.87
2018-06-05T09:46:50.731Z,25.85
2018-06-05T09:47:50.256Z,25.88
2018-06-05T09:48:50.209Z,25.89
2018-06-05T09:49:50.230Z,25.92
2018-06-05T09:50:50.226Z,26.11
2018-06-05T09:51:50.179Z,26.14
2018-06-05T09:52:50.193Z,26.16
2018-06-05T09:53:50.187Z,26.02
2018-06-05T09:54:50.303Z,26.04
2018-06-05T09:55:50.197Z,25.98
2018-06-05T09:56:50.189Z,26
2018-06-05T09:57:51.577Z,25.97
2018-06-05T09:58:50.259Z,26.03
2018-06-05T09:59:50.265Z,26.04
2018-06-05T10:00:50.263Z,26.13
2018-06-05T10:01:50.211Z,26.16
2018-06-05T10:02:50.181Z,26.24
2018-06-05T10:03:51.177Z,26.27
2018-06-05T10:04:50.293Z,26.31
2018-06-05T10:05:50.167Z,26.36
2018-06-05T10:06:50.238Z,26.43
2018-06-05T10:07:50.181Z,26.49
2018-06-05T10:08:50.219Z,26.51
2018-06-05T10:09:50.202Z,26.48
2018-06-05T10:10:50.258Z,26.51
2018-06-05T10:11:50.272Z,26.52
2018-06-05T10:12:50.180Z,26.63
2018-06-05T10:13:50.575Z,26.6
2018-06-05T10:14:50.267Z,26.73
2018-06-05T10:15:50.222Z,26.64
2018-06-05T10:16:50.167Z,26.65
2018-06-05T10:17:50.156Z,26.68
2018-06-05T10:18:50.183Z,26.81
2018-06-05T10:19:50.186Z,26.85
2018-06-05T10:20:50.187Z,26.8
2018-06-05T10:21:50.150Z,26.85
2018-06-05T10:22:50.149Z,26.73
2018-06-05T10:23:50.188Z,26.59
2018-06-05T10:24:50.205Z,26.55
2018-06-05T10:25:50.207Z,26.62
2018-06-05T10:26:50.206Z,26.67
2018-06-05T10:27:50.597Z,26.71
2018-06-05T10:28:50.191Z,26.73
2018-06-05T10:29:50.271Z,26.75
2018-06-05T10:30:50.193Z,26.79
2018-06-05T10:31:50.207Z,26.85
2018-06-05T10:32:50.218Z,26.86
2018-06-05T10:33:50.195Z,26.99
2018-06-05T10:34:50.718Z,27.07
2018-06-05T10:35:50.217Z,27.13
2018-06-05T10:36:50.160Z,27.14
2018-06-05T10:37:50.192Z,27.18
2018-06-05T10:38:50.159Z,27.21
2018-06-05T10:39:50.153Z,27.23
2018-06-05T10:40:50.183Z,27.22
2018-06-05T10:41:50.181Z,27.23
2018-06-05T10:42:50.184Z,27.28
2018-06-05T10:43:50.181Z,27.28
2018-06-05T10:44:50.184Z,27.39
2018-06-05T10:45:50.179Z,27.46
2018-06-05T10:46:50.200Z,27.43
2018-06-05T10:47:50.144Z,27.43
2018-06-05T10:48:50.842Z,27.49
2018-06-05T10:49:50.126Z,27.47
2018-06-05T10:50:50.267Z,27.44
2018-06-05T10:51:50.169Z,27.46
2018-06-05T10:52:50.179Z,27.5
2018-06-05T10:53:50.243Z,27.55
2018-06-05T10:54:50.188Z,27.54
2018-06-05T10:55:50.170Z,27.53
2018-06-05T10:56:50.158Z,27.54
2018-06-05T10:57:50.177Z,27.64
2018-06-05T10:58:50.219Z,27.62
2018-06-05T10:59:50.225Z,27.75
2018-06-05T11:00:50.153Z,27.8
2018-06-05T11:01:50.141Z,27.79
2018-06-05T11:02:50.168Z,27.89
2018-06-05T11:03:50.199Z,27.84
2018-06-05T11:04:50.145Z,27.82
2018-06-05T11:05:50.168Z,27.84
2018-06-05T11:06:50.222Z,27.78
2018-06-05T11:07:50.239Z,27.66
2018-06-05T11:08:50.185Z,27.68
2018-06-05T11:09:50.159Z,27.74
2018-06-05T11:10:50.159Z,27.79
2018-06-05T11:11:50.160Z,27.81
2018-06-05T11:12:51.003Z,27.91
2018-06-05T11:13:50.176Z,28.07
2018-06-05T11:14:50.188Z,28.12
2018-06-05T11:15:50.178Z,28.06
2018-06-05T11:16:50.148Z,28.06
2018-06-05T11:17:50.171Z,27.99
2018-06-05T11:18:50.244Z,28.02
2018-06-05T11:19:50.159Z,27.96
2018-06-05T11:20:50.199Z,27.98
2018-06-05T11:21:50.205Z,28.05
2018-06-05T11:22:50.187Z,28.02
2018-06-05T11:23:50.368Z,28.1
2018-06-05T11:24:50.367Z,28.25
2018-06-05T11:25:50.310Z,28.3
2018-06-05T11:26:50.342Z,28.36
2018-06-05T11:27:50.154Z,28.35
2018-06-05T11:28:50.222Z,28.33
2018-06-05T11:29:50.169Z,28.26
2018-06-05T11:30:50.381Z,28.17
2018-06-05T11:31:50.185Z,28.09
2018-06-05T11:32:50.154Z,27.98
2018-06-05T11:33:50.504Z,27.96
2018-06-05T11:34:50.186Z,27.97
2018-06-05T11:35:50.228Z,27.93
2018-06-05T11:36:50.582Z,27.82
2018-06-05T11:37:50.154Z,27.85
2018-06-05T11:38:50.174Z,27.98
2018-06-05T11:39:50.145Z,27.93
2018-06-05T11:40:50.208Z,27.96
2018-06-05T11:41:50.175Z,27.95
2018-06-05T11:42:50.155Z,27.95
2018-06-05T11:43:50.163Z,27.93
2018-06-05T11:44:50.190Z,27.95
2018-06-05T11:45:50.180Z,27.94
2018-06-05T11:46:50.535Z,27.96
2018-06-05T11:47:50.148Z,27.98
2018-06-05T11:48:50.149Z,27.99
2018-06-05T11:49:50.194Z,28.04
2018-06-05T11:50:50.139Z,27.94
2018-06-05T11:51:50.144Z,27.97
2018-06-05T11:52:50.121Z,27.98
2018-06-05T11:53:50.182Z,27.91
2018-06-05T11:54:50.153Z,27.95
2018-06-05T11:55:50.174Z,28.03
2018-06-05T11:56:50.268Z,28.2
2018-06-05T11:57:50.259Z,28.32
2018-06-05T11:58:50.294Z,28.42
2018-06-05T11:59:50.126Z,28.28
2018-06-05T12:00:50.768Z,28.29
2018-06-05T12:01:50.903Z,28.23
2018-06-05T12:02:50.117Z,28.29
2018-06-05T12:03:50.169Z,28.3
2018-06-05T12:04:50.161Z,28.27
2018-06-05T12:05:50.188Z,28.28
2018-06-05T12:06:50.166Z,28.26
2018-06-05T12:07:50.172Z,28.2
2018-06-05T12:08:50.162Z,28.24
2018-06-05T12:09:50.228Z,28.21
2018-06-05T12:10:50.150Z,28.13
2018-06-05T12:11:50.178Z,28.18
2018-06-05T12:12:50.169Z,28.19
2018-06-05T12:13:50.132Z,28.09
2018-06-05T12:14:50.205Z,28.1
2018-06-05T12:15:50.194Z,28.17
2018-06-05T12:16:50.173Z,28.18
2018-06-05T12:17:50.835Z,28.16
2018-06-05T12:18:50.158Z,28.16
2018-06-05T12:19:50.179Z,28.13
2018-06-05T12:20:50.191Z,28.14
2018-06-05T12:21:50.134Z,28.05
2018-06-05T12:22:50.191Z,27.99
2018-06-05T12:23:50.163Z,27.92
2018-06-05T12:24:50.209Z,27.96
2018-06-05T12:25:50.319Z,27.97
2018-06-05T12:26:50.140Z,28.02
2018-06-05T12:27:50.165Z,28.1
2018-06-05T12:28:50.259Z,28.1
2018-06-05T12:29:50.277Z,28.11
2018-06-05T12:30:50.340Z,28.13
2018-06-05T12:31:50.160Z,28.15
2018-06-05T12:32:50.353Z,28.14
2018-06-05T12:33:50.164Z,28.15
2018-06-05T12:34:50.212Z,28.14
2018-06-05T12:35:50.132Z,28.15
2018-06-05T12:36:50.291Z,28.16
2018-06-05T12:37:50.155Z,28.17
2018-06-05T12:38:50.270Z,28.19
2018-06-05T12:39:50.149Z,28.18
2018-06-05T12:40:50.145Z,28.18
2018-06-05T12:41:50.497Z,28.2
2018-06-05T12:42:50.133Z,28.21
2018-06-05T12:43:50.157Z,28.19
2018-06-05T12:44:50.151Z,28.21
2018-06-05T12:45:50.133Z,28.2
2018-06-05T12:46:50.142Z,28.21
2018-06-05T12:47:50.224Z,28.19
2018-06-05T12:48:50.166Z,28.16
2018-06-05T12:49:50.163Z,28.16
2018-06-05T12:50:50.151Z,28.21
2018-06-05T12:51:50.141Z,28.28
2018-06-05T12:52:50.127Z,28.36
2018-06-05T12:53:50.123Z,28.44
2018-06-05T12:54:50.134Z,28.53
2018-06-05T12:55:50.147Z,28.59